Time;durP1;ratioP1;P1;durP2;ratioP2;P2;SDS_P1;SDS_P2;PMS_P1;PMS_P2;Temp;Humidity;BMP_temperature;BMP_pressure;BME280_temperature;BME280_humidity;BME280_pressure;Samples;Min_cycle;Max_cycle;Signal;HPM_P1;HPM_P2
2023/06/29 00:01:44;;;;;;;15.60;10.50;;;;;;;16.28;100.00;98908.20;108023;1307;23457;-43
2023/06/29 00:04:09;;;;;;;14.60;10.90;;;;;;;16.29;100.00;98909.92;108012;1307;22362;-43
2023/06/29 00:06:37;;;;;;;13.70;10.90;;;;;;;16.27;100.00;98908.83;108025;1307;22221;-44
2023/06/29 00:09:05;;;;;;;14.80;10.80;;;;;;;16.25;100.00;98909.88;108036;1307;22232;-43
2023/06/29 00:11:31;;;;;;;14.50;10.90;;;;;;;16.21;100.00;98909.90;108024;1307;22206;-49
2023/06/29 00:13:56;;;;;;;14.40;10.50;;;;;;;16.21;100.00;98910.05;108023;1307;22324;-43
2023/06/29 00:16:22;;;;;;;15.90;10.70;;;;;;;16.21;100.00;98915.52;108035;1307;22218;-42
2023/06/29 00:18:49;;;;;;;15.20;11.30;;;;;;;16.21;100.00;98916.22;108031;1307;22238;-44
2023/06/29 00:21:15;;;;;;;18.10;11.00;;;;;;;16.20;100.00;98919.81;108031;1307;22226;-43
2023/06/29 00:23:40;;;;;;;15.60;10.80;;;;;;;16.22;100.00;98922.52;108024;1307;23566;-44
2023/06/29 00:26:06;;;;;;;13.30;10.80;;;;;;;16.19;100.00;98922.93;108020;1307;22730;-45
2023/06/29 00:28:31;;;;;;;14.80;10.60;;;;;;;16.20;100.00;98927.08;108018;1307;23216;-44
2023/06/29 00:30:56;;;;;;;16.10;10.40;;;;;;;16.17;100.00;98927.92;108019;1307;22307;-43
2023/06/29 00:33:22;;;;;;;13.70;10.30;;;;;;;16.17;100.00;98930.40;108007;1307;22361;-45
2023/06/29 00:35:47;;;;;;;19.90;11.80;;;;;;;16.13;100.00;98929.64;108025;1307;22210;-44
2023/06/29 00:38:12;;;;;;;13.10;10.80;;;;;;;16.14;100.00;98924.05;108024;1307;22471;-44
2023/06/29 00:40:37;;;;;;;12.50;10.00;;;;;;;16.14;100.00;98923.40;108030;1307;22409;-45
2023/06/29 00:43:03;;;;;;;14.30;10.30;;;;;;;16.14;100.00;98921.45;107996;1307;22346;-44
2023/06/29 00:45:28;;;;;;;17.10;10.30;;;;;;;16.09;100.00;98923.80;108024;1307;22434;-45
2023/06/29 00:47:54;;;;;;;12.80;10.00;;;;;;;16.06;100.00;98926.28;108013;1307;23020;-45
2023/06/29 00:50:21;;;;;;;15.00;10.60;;;;;;;16.02;100.00;98927.77;108018;1307;22243;-45
2023/06/29 00:52:47;;;;;;;16.10;11.00;;;;;;;16.00;100.00;98928.41;108022;1307;22273;-45
2023/06/29 00:55:12;;;;;;;14.00;10.90;;;;;;;15.98;100.00;98928.41;108000;1307;22989;-45
2023/06/29 00:57:39;;;;;;;13.90;10.40;;;;;;;15.98;100.00;98930.39;108010;1307;22241;-43
2023/06/29 01:00:10;;;;;;;17.10;11.00;;;;;;;15.92;100.00;98929.42;108024;1307;23188;-44
2023/06/29 01:02:40;;;;;;;18.60;11.30;;;;;;;15.88;100.00;98932.20;107990;1307;22185;-43
2023/06/29 01:05:09;;;;;;;14.40;10.70;;;;;;;15.84;100.00;98928.17;108065;1307;23029;-43
2023/06/29 01:07:50;;;;;;;13.30;11.40;;;;;;;15.81;100.00;98927.68;108019;1307;22223;-44
2023/06/29 01:10:19;;;;;;;14.40;11.10;;;;;;;15.79;100.00;98928.02;108019;1307;22411;-44
2023/06/29 01:12:47;;;;;;;14.50;12.40;;;;;;;15.78;100.00;98926.06;107979;1307;22453;-44
2023/06/29 01:15:12;;;;;;;16.00;11.20;;;;;;;15.75;100.00;98926.06;108015;1307;23158;-44
2023/06/29 01:17:39;;;;;;;12.70;11.40;;;;;;;15.73;100.00;98921.64;108010;1307;22261;-43
2023/06/29 01:20:09;;;;;;;13.30;11.90;;;;;;;15.68;100.00;98920.06;108008;1307;22445;-44
2023/06/29 01:22:41;;;;;;;15.70;11.50;;;;;;;15.64;100.00;98912.05;107990;1307;22390;-44
2023/06/29 01:25:07;;;;;;;17.10;12.20;;;;;;;15.61;100.00;98908.79;108030;1307;22207;-45
2023/06/29 01:27:33;;;;;;;19.70;11.50;;;;;;;15.59;100.00;98912.20;108026;1307;22323;-44
2023/06/29 01:30:00;;;;;;;19.80;12.40;;;;;;;15.54;100.00;98912.52;108015;1307;23201;-43
2023/06/29 01:32:31;;;;;;;12.80;11.10;;;;;;;15.54;100.00;98913.64;108019;1307;22292;-44
2023/06/29 01:34:57;;;;;;;16.50;11.70;;;;;;;15.52;100.00;98914.12;108016;1307;22858;-44
2023/06/29 01:37:27;;;;;;;21.30;12.00;;;;;;;15.52;100.00;98914.17;108032;1307;22397;-45
2023/06/29 01:40:06;;;;;;;14.00;12.10;;;;;;;15.51;100.00;98913.14;108028;1307;22483;-44
2023/06/29 01:42:32;;;;;;;13.70;12.00;;;;;;;15.49;100.00;98909.25;108034;1307;22201;-43
2023/06/29 01:45:03;;;;;;;18.70;12.20;;;;;;;15.48;100.00;98910.42;108017;1307;23155;-45
2023/06/29 01:47:29;;;;;;;21.40;11.90;;;;;;;15.48;100.00;98908.13;108042;1307;22472;-44
2023/06/29 01:49:55;;;;;;;20.10;12.40;;;;;;;15.47;100.00;98906.40;108012;1307;22205;-44
2023/06/29 01:52:20;;;;;;;16.30;12.50;;;;;;;15.44;100.00;98904.20;108030;1307;22241;-43
2023/06/29 01:54:46;;;;;;;14.10;12.60;;;;;;;15.42;100.00;98909.29;108028;1307;22367;-43
2023/06/29 01:57:12;;;;;;;18.80;13.00;;;;;;;15.40;100.00;98910.34;108018;1307;22225;-43
2023/06/29 01:59:38;;;;;;;19.70;14.20;;;;;;;15.38;100.00;98911.39;108031;1307;22871;-44
2023/06/29 02:02:04;;;;;;;20.30;13.70;;;;;;;15.36;100.00;98913.64;108003;1307;22266;-43
2023/06/29 02:04:29;;;;;;;19.40;15.30;;;;;;;15.32;100.00;98913.77;107967;1307;23081;-44
2023/06/29 02:06:55;;;;;;;24.80;15.90;;;;;;;15.24;100.00;98908.65;108023;1307;22243;-43
2023/06/29 02:09:20;;;;;;;25.90;15.60;;;;;;;15.23;100.00;98910.14;108026;1307;22231;-44
2023/06/29 02:11:45;;;;;;;25.80;15.40;;;;;;;15.24;100.00;98913.77;108017;1307;23071;-47
2023/06/29 02:14:10;;;;;;;26.70;16.40;;;;;;;15.21;100.00;98911.70;107997;1307;22217;-45
2023/06/29 02:16:36;;;;;;;22.60;16.50;;;;;;;15.17;100.00;98916.80;108013;1307;22298;-43
2023/06/29 02:19:01;;;;;;;22.70;15.50;;;;;;;15.13;100.00;98917.08;108022;1307;22967;-43
2023/06/29 02:21:26;;;;;;;26.40;15.90;;;;;;;15.09;100.00;98916.39;108039;1307;22286;-44
2023/06/29 02:23:52;;;;;;;21.70;15.60;;;;;;;15.08;100.00;98919.29;107983;1307;22211;-44
2023/06/29 02:26:17;;;;;;;19.80;15.10;;;;;;;15.07;100.00;98920.24;108009;1307;22384;-44
2023/06/29 02:28:42;;;;;;;18.10;14.20;;;;;;;15.03;100.00;98919.67;108016;1307;22239;-44
2023/06/29 02:31:08;;;;;;;19.50;14.40;;;;;;;15.02;100.00;98922.04;108006;1307;22212;-46
2023/06/29 02:33:33;;;;;;;24.40;15.70;;;;;;;14.99;100.00;98925.40;108016;1307;23128;-44
2023/06/29 02:35:58;;;;;;;17.80;14.20;;;;;;;15.01;100.00;98932.08;108016;1307;22293;-43
2023/06/29 02:38:24;;;;;;;22.00;13.40;;;;;;;15.00;100.00;98933.66;108004;1307;22306;-44
2023/06/29 02:43:34;;;;;;;22.50;14.20;;;;;;;15.04;100.00;98939.36;107122;1302;545082;-45
2023/06/29 02:46:00;;;;;;;17.00;13.20;;;;;;;15.04;100.00;98942.71;107428;1312;22432;-42
2023/06/29 02:48:25;;;;;;;18.90;12.80;;;;;;;15.05;100.00;98945.13;107424;1312;22331;-44
2023/06/29 02:50:51;;;;;;;19.20;13.50;;;;;;;15.01;100.00;98944.71;107423;1312;22251;-42
2023/06/29 02:53:16;;;;;;;20.70;12.80;;;;;;;14.98;100.00;98943.87;107433;1312;22233;-47
2023/06/29 02:55:42;;;;;;;17.70;11.80;;;;;;;15.02;100.00;98950.70;107412;1313;22211;-46
2023/06/29 02:58:08;;;;;;;14.60;11.40;;;;;;;15.00;100.00;98949.95;107547;1310;153111;-42
2023/06/29 03:00:33;;;;;;;17.30;11.40;;;;;;;14.93;100.00;98942.52;107671;1310;22710;-44
2023/06/29 03:02:58;;;;;;;21.20;11.50;;;;;;;14.93;100.00;98949.91;107665;1310;22228;-43
2023/06/29 03:05:24;;;;;;;14.60;11.00;;;;;;;14.95;100.00;98958.02;107679;1310;22274;-45
2023/06/29 03:07:49;;;;;;;13.90;11.40;;;;;;;14.93;100.00;98958.60;107675;1310;22257;-44
2023/06/29 03:10:14;;;;;;;18.90;12.40;;;;;;;14.92;100.00;98959.88;107676;1310;22422;-44
2023/06/29 03:12:41;;;;;;;20.40;11.20;;;;;;;14.89;100.00;98965.61;107889;1308;22908;-45
2023/06/29 03:15:07;;;;;;;16.30;12.00;;;;;;;14.89;100.00;98960.70;107880;1308;22196;-42
2023/06/29 03:17:32;;;;;;;24.90;12.80;;;;;;;14.89;100.00;98961.40;107868;1308;22173;-45
2023/06/29 03:19:57;;;;;;;17.60;12.50;;;;;;;14.86;100.00;98962.10;107888;1308;22961;-44
2023/06/29 03:22:25;;;;;;;20.50;12.50;;;;;;;14.85;100.00;98961.66;107866;1308;22248;-43
2023/06/29 03:24:50;;;;;;;19.20;13.30;;;;;;;14.83;100.00;98962.96;107860;1308;23174;-43
2023/06/29 03:27:15;;;;;;;18.30;13.40;;;;;;;14.79;100.00;98967.59;107870;1308;22190;-44
2023/06/29 03:29:41;;;;;;;18.50;14.30;;;;;;;14.80;100.00;98970.73;107868;1308;22939;-44
2023/06/29 03:32:06;;;;;;;20.20;13.70;;;;;;;14.78;100.00;98970.13;107836;1308;22434;-44
2023/06/29 03:34:31;;;;;;;19.70;13.60;;;;;;;14.79;100.00;98969.93;107852;1308;22219;-46
2023/06/29 03:36:57;;;;;;;23.60;14.30;;;;;;;14.83;100.00;98971.75;107887;1308;22243;-44
2023/06/29 03:39:22;;;;;;;20.50;13.00;;;;;;;14.85;100.00;98971.36;107878;1308;22410;-43
2023/06/29 03:41:47;;;;;;;21.70;13.90;;;;;;;14.89;100.00;98975.14;107692;1308;22533;-42
2023/06/29 03:44:13;;;;;;;19.50;14.60;;;;;;;14.87;100.00;98976.40;107679;1308;22945;-44
2023/06/29 03:46:38;;;;;;;20.20;13.70;;;;;;;14.88;100.00;98977.35;107880;1308;22320;-45
2023/06/29 03:49:04;;;;;;;20.40;14.00;;;;;;;14.85;100.00;98979.33;107862;1308;22472;-43
2023/06/29 03:51:29;;;;;;;17.40;14.00;;;;;;;14.85;100.00;98979.55;107836;1308;22244;-45
2023/06/29 03:53:54;;;;;;;20.80;14.60;;;;;;;14.87;100.00;98985.85;107856;1308;22236;-43
2023/06/29 03:56:19;;;;;;;20.60;14.70;;;;;;;14.92;100.00;98983.90;107827;1308;22234;-44
2023/06/29 03:58:45;;;;;;;23.80;15.30;;;;;;;14.95;100.00;98989.10;107837;1308;22236;-43
2023/06/29 04:01:10;;;;;;;22.30;15.80;;;;;;;14.96;100.00;98991.35;107407;1308;22339;-42
2023/06/29 04:03:35;;;;;;;20.80;15.60;;;;;;;14.95;100.00;98994.04;107832;1308;22412;-44
2023/06/29 04:06:00;;;;;;;23.00;16.30;;;;;;;14.95;100.00;98998.29;107841;1308;22271;-42
2023/06/29 04:08:26;;;;;;;21.80;15.60;;;;;;;14.95;100.00;98992.85;107832;1308;22251;-42
2023/06/29 04:10:52;;;;;;;21.90;15.60;;;;;;;14.94;100.00;98992.88;107784;1308;22974;-44
2023/06/29 04:13:17;;;;;;;23.40;15.40;;;;;;;14.94;100.00;98993.23;107850;1308;22229;-43
2023/06/29 04:15:43;;;;;;;21.60;15.80;;;;;;;14.93;100.00;98996.32;107837;1308;22356;-43
2023/06/29 04:18:08;;;;;;;23.70;16.70;;;;;;;14.86;100.00;98998.31;107842;1308;22495;-43
2023/06/29 04:20:33;;;;;;;24.40;16.50;;;;;;;14.88;100.00;98999.58;107813;1308;22334;-43
2023/06/29 04:22:59;;;;;;;23.60;15.70;;;;;;;14.92;100.00;99001.55;107810;1308;22316;-44
2023/06/29 04:25:24;;;;;;;21.10;15.90;;;;;;;14.93;100.00;99002.34;107994;1307;22262;-44
2023/06/29 04:27:49;;;;;;;27.90;16.50;;;;;;;14.94;100.00;98999.98;108008;1307;22438;-43
2023/06/29 04:30:17;;;;;;;21.40;16.00;;;;;;;15.00;100.00;99000.22;107982;1307;22231;-46
2023/06/29 04:32:43;;;;;;;22.30;15.20;;;;;;;15.00;100.00;98997.73;108002;1307;23092;-43
2023/06/29 04:35:09;;;;;;;20.50;14.40;;;;;;;15.02;100.00;99000.43;108016;1307;22241;-43
2023/06/29 04:37:41;;;;;;;24.30;16.70;;;;;;;15.00;100.00;98996.70;108006;1307;22243;-44
2023/06/29 04:40:10;;;;;;;22.00;14.70;;;;;;;15.06;100.00;98995.89;108013;1307;22557;-44
2023/06/29 04:42:45;;;;;;;25.20;15.20;;;;;;;15.10;100.00;98999.81;108010;1307;22235;-44
2023/06/29 04:45:12;;;;;;;19.80;15.30;;;;;;;15.11;100.00;99002.55;108001;1307;22232;-43
2023/06/29 04:47:40;;;;;;;22.00;15.20;;;;;;;15.13;100.00;99001.45;108013;1307;22421;-43
2023/06/29 04:50:07;;;;;;;20.90;15.70;;;;;;;15.14;100.00;99000.02;108013;1307;22235;-42
2023/06/29 04:52:36;;;;;;;18.70;14.60;;;;;;;15.15;100.00;99001.73;108034;1307;23243;-43
2023/06/29 04:55:02;;;;;;;19.90;14.80;;;;;;;15.14;100.00;99004.41;107990;1307;22232;-43
2023/06/29 04:57:27;;;;;;;21.70;15.60;;;;;;;15.21;100.00;99008.11;107994;1307;22456;-45
2023/06/29 04:59:53;;;;;;;22.30;16.30;;;;;;;15.18;100.00;99013.13;107966;1307;23041;-44
2023/06/29 05:02:18;;;;;;;24.40;16.10;;;;;;;15.19;100.00;99015.16;108014;1307;22979;-43
2023/06/29 05:04:43;;;;;;;23.00;14.40;;;;;;;15.24;100.00;99017.59;107858;1292;22229;-42
2023/06/29 05:07:08;;;;;;;22.50;16.20;;;;;;;15.23;100.00;99019.43;107866;1308;22256;-43
2023/06/29 05:09:34;;;;;;;21.20;15.20;;;;;;;15.20;100.00;99019.82;107861;1308;22244;-44
2023/06/29 05:11:59;;;;;;;18.60;15.10;;;;;;;15.24;100.00;99019.14;107836;1308;22211;-44
2023/06/29 05:14:24;;;;;;;16.50;14.00;;;;;;;15.26;100.00;99019.01;107865;1307;22416;-45
2023/06/29 05:16:50;;;;;;;24.30;15.10;;;;;;;15.28;100.00;99023.45;107876;1308;23279;-43
2023/06/29 05:19:15;;;;;;;19.60;13.80;;;;;;;15.33;100.00;99024.42;107870;1308;22242;-46
2023/06/29 05:21:40;;;;;;;22.30;13.60;;;;;;;15.34;100.00;99021.60;107845;1308;22228;-44
2023/06/29 05:24:06;;;;;;;20.30;14.70;;;;;;;15.34;100.00;99023.52;107889;1308;22429;-45
2023/06/29 05:26:31;;;;;;;20.20;14.00;;;;;;;15.35;100.00;99024.64;107873;1308;22266;-43
2023/06/29 05:28:57;;;;;;;19.50;14.20;;;;;;;15.41;100.00;99025.95;107866;1308;22407;-43
2023/06/29 05:31:22;;;;;;;19.70;13.80;;;;;;;15.44;100.00;99028.07;107860;1308;22260;-45
2023/06/29 05:33:47;;;;;;;19.20;14.30;;;;;;;15.50;100.00;99031.45;107877;1308;23194;-45
2023/06/29 05:36:12;;;;;;;19.30;13.40;;;;;;;15.47;100.00;99034.85;107878;1308;22282;-43
2023/06/29 05:38:38;;;;;;;18.60;13.50;;;;;;;15.48;100.00;99038.33;107877;1292;22250;-44
2023/06/29 05:41:03;;;;;;;19.50;13.80;;;;;;;15.50;100.00;99038.85;107872;1308;22249;-44
2023/06/29 05:43:29;;;;;;;19.70;14.50;;;;;;;15.55;100.00;99039.48;107560;1308;22454;-44
2023/06/29 05:45:54;;;;;;;26.70;13.60;;;;;;;15.57;100.00;99036.89;107891;1308;22279;-45
2023/06/29 05:48:19;;;;;;;19.30;13.10;;;;;;;15.56;100.00;99036.92;107841;1308;22220;-44
2023/06/29 05:50:44;;;;;;;15.60;12.40;;;;;;;15.55;100.00;99039.14;107888;1308;23302;-43
2023/06/29 05:53:10;;;;;;;16.30;11.80;;;;;;;15.63;100.00;99034.25;107874;1308;22224;-43
2023/06/29 05:55:36;;;;;;;23.80;12.50;;;;;;;15.73;100.00;99030.67;107854;1308;22236;-44
2023/06/29 05:58:01;;;;;;;20.60;12.20;;;;;;;15.75;100.00;99030.34;107879;1308;22444;-44
2023/06/29 06:00:26;;;;;;;15.50;11.30;;;;;;;15.89;100.00;99033.60;107844;1308;22449;-44
2023/06/29 06:02:52;;;;;;;17.40;11.90;;;;;;;15.98;100.00;99030.77;107848;1308;23032;-43
2023/06/29 06:05:17;;;;;;;14.50;11.70;;;;;;;16.04;100.00;99033.86;107848;1308;22330;-44
2023/06/29 06:07:42;;;;;;;22.30;11.30;;;;;;;16.11;100.00;99032.39;107875;1308;22977;-43
2023/06/29 06:10:08;;;;;;;17.40;11.70;;;;;;;16.20;100.00;99036.91;107854;1308;22240;-44
2023/06/29 06:12:33;;;;;;;16.80;11.50;;;;;;;16.27;100.00;99037.94;107866;1308;22244;-46
2023/06/29 06:14:58;;;;;;;15.40;10.80;;;;;;;16.35;100.00;99037.70;107877;1308;22268;-44
2023/06/29 06:17:24;;;;;;;14.40;11.00;;;;;;;16.42;100.00;99040.45;107879;1308;22304;-44
2023/06/29 06:19:49;;;;;;;16.50;10.80;;;;;;;16.47;100.00;99036.76;107852;1308;23157;-45
2023/06/29 06:22:14;;;;;;;12.70;10.00;;;;;;;16.57;100.00;99038.29;107850;1308;22315;-43
2023/06/29 06:24:40;;;;;;;12.80;10.30;;;;;;;16.58;100.00;99038.86;107896;1308;22147;-43
2023/06/29 06:27:05;;;;;;;13.50;10.50;;;;;;;16.59;100.00;99039.16;107870;1308;22234;-45
2023/06/29 06:29:30;;;;;;;17.90;10.30;;;;;;;16.69;100.00;99035.73;107870;1308;22450;-45
2023/06/29 06:31:56;;;;;;;14.00;10.10;;;;;;;16.67;100.00;99043.84;107873;1308;23218;-44
2023/06/29 06:34:21;;;;;;;14.10;9.50;;;;;;;16.69;100.00;99044.18;107870;1308;22230;-45
2023/06/29 06:36:47;;;;;;;13.70;9.50;;;;;;;16.78;100.00;99038.83;107867;1308;22232;-47
2023/06/29 06:39:14;;;;;;;14.40;10.50;;;;;;;16.87;100.00;99041.23;107882;1308;22265;-43
2023/06/29 06:41:40;;;;;;;15.10;10.20;;;;;;;16.94;100.00;99039.13;107859;1308;22212;-46
2023/06/29 06:44:05;;;;;;;12.60;9.90;;;;;;;17.00;100.00;99043.01;107852;1308;23224;-43
2023/06/29 06:46:31;;;;;;;14.70;9.60;;;;;;;17.00;100.00;99048.73;107879;1308;23142;-43
2023/06/29 06:48:57;;;;;;;15.90;10.60;;;;;;;16.92;100.00;99046.35;107857;1308;23091;-43
2023/06/29 06:51:22;;;;;;;13.80;10.10;;;;;;;16.94;99.97;99045.87;107838;1301;23274;-45
2023/06/29 06:53:47;;;;;;;11.90;9.70;;;;;;;17.02;99.61;99042.27;107856;1308;22436;-45
2023/06/29 06:56:13;;;;;;;13.80;9.50;;;;;;;17.02;99.54;99042.96;107879;1308;22252;-43
2023/06/29 06:58:38;;;;;;;15.20;10.80;;;;;;;17.08;99.75;99044.98;107847;1308;23467;-44
2023/06/29 07:01:04;;;;;;;14.10;9.80;;;;;;;17.10;99.65;99045.84;107850;1308;22398;-45
2023/06/29 07:03:29;;;;;;;13.80;9.90;;;;;;;17.08;98.61;99047.58;107850;1308;22215;-44
2023/06/29 07:05:55;;;;;;;18.80;9.80;;;;;;;17.05;97.46;99037.79;107873;1308;22412;-43
2023/06/29 07:08:21;;;;;;;12.50;9.30;;;;;;;17.06;98.06;99038.27;107877;1308;22235;-44
2023/06/29 07:10:46;;;;;;;18.90;9.80;;;;;;;17.09;98.87;99035.66;107873;1308;22870;-44
2023/06/29 07:13:11;;;;;;;11.90;9.80;;;;;;;17.17;99.59;99034.77;107865;1308;23088;-44
2023/06/29 07:15:37;;;;;;;15.30;9.10;;;;;;;17.20;98.68;99030.80;107862;1308;22255;-45
2023/06/29 07:18:02;;;;;;;16.50;10.00;;;;;;;17.26;98.77;99030.83;107854;1308;22222;-44
2023/06/29 07:20:28;;;;;;;14.10;9.90;;;;;;;17.32;98.99;99027.16;107863;1308;22246;-44
2023/06/29 07:22:54;;;;;;;16.40;9.10;;;;;;;17.34;98.49;99027.86;107865;1308;22250;-44
2023/06/29 07:25:19;;;;;;;15.20;9.60;;;;;;;17.36;98.39;99026.23;107857;1308;23051;-45
2023/06/29 07:27:45;;;;;;;10.80;8.20;;;;;;;17.46;98.67;99028.23;107847;1308;22411;-45
2023/06/29 07:30:10;;;;;;;12.10;8.20;;;;;;;17.50;96.95;99027.67;107892;1308;22227;-44
2023/06/29 07:32:36;;;;;;;14.50;7.40;;;;;;;17.54;96.21;99031.73;107880;1308;22261;-43
2023/06/29 07:35:01;;;;;;;11.80;7.30;;;;;;;17.65;96.50;99029.41;107884;1308;23060;-43
2023/06/29 07:37:26;;;;;;;11.40;8.50;;;;;;;17.74;96.09;99032.09;107884;1308;22405;-44
2023/06/29 07:39:52;;;;;;;12.30;7.90;;;;;;;17.82;96.33;99037.63;107883;1308;23226;-43
2023/06/29 07:42:17;;;;;;;13.60;8.60;;;;;;;17.90;96.33;99036.44;107075;1308;22559;-42
2023/06/29 07:44:42;;;;;;;15.40;8.00;;;;;;;17.94;95.88;99034.05;106760;1308;24441;-41
2023/06/29 07:47:07;;;;;;;11.20;7.90;;;;;;;18.06;95.82;99035.36;107103;1308;22899;-47
2023/06/29 07:49:33;;;;;;;10.00;8.00;;;;;;;18.10;95.26;99028.53;107866;1308;24208;-45
2023/06/29 07:51:58;;;;;;;13.40;7.80;;;;;;;18.15;93.96;99028.58;107870;1308;22316;-45
2023/06/29 07:54:23;;;;;;;16.60;7.70;;;;;;;18.19;92.14;99032.55;107864;1308;22244;-44
2023/06/29 07:56:49;;;;;;;12.90;7.40;;;;;;;18.27;91.95;99033.21;107877;1308;23067;-43
2023/06/29 07:59:15;;;;;;;9.00;6.40;;;;;;;18.34;91.85;99029.92;107897;1308;22973;-44
2023/06/29 08:01:40;;;;;;;10.30;7.50;;;;;;;18.44;91.82;99029.38;107852;1308;23068;-43
2023/06/29 08:04:08;;;;;;;9.50;7.30;;;;;;;18.52;91.45;99026.65;107871;1308;22222;-43
2023/06/29 08:06:34;;;;;;;14.40;7.80;;;;;;;18.60;90.43;99027.02;107878;1308;23273;-45
2023/06/29 08:09:00;;;;;;;9.10;6.70;;;;;;;18.71;90.34;99024.05;107874;1308;22255;-43
2023/06/29 08:11:26;;;;;;;7.10;6.30;;;;;;;18.83;89.53;99024.37;107882;1308;22507;-44
2023/06/29 08:13:52;;;;;;;7.70;6.10;;;;;;;18.93;88.73;99021.78;107870;1308;23038;-43
2023/06/29 08:16:17;;;;;;;9.50;6.40;;;;;;;19.04;86.33;99020.49;107878;1308;22226;-46
2023/06/29 08:18:42;;;;;;;7.60;5.90;;;;;;;19.13;85.23;99022.55;107916;1308;23066;-45
2023/06/29 08:21:10;;;;;;;7.90;6.10;;;;;;;19.22;84.78;99014.68;107883;1308;22423;-46
2023/06/29 08:23:35;;;;;;;7.30;5.10;;;;;;;19.35;86.29;99014.30;107870;1308;22449;-44
2023/06/29 08:26:01;;;;;;;5.50;5.00;;;;;;;19.50;84.19;99009.64;107879;1308;22481;-43
2023/06/29 08:28:26;;;;;;;10.60;5.40;;;;;;;19.64;84.40;99010.74;107865;1308;22907;-45
2023/06/29 08:30:51;;;;;;;8.10;5.70;;;;;;;19.82;82.46;99014.06;107891;1308;22403;-49
2023/06/29 08:33:17;;;;;;;9.50;5.10;;;;;;;20.01;82.80;99010.72;107871;1305;22459;-44
2023/06/29 08:35:43;;;;;;;8.40;5.10;;;;;;;20.18;80.01;99012.98;107650;1296;22624;-41
2023/06/29 08:38:08;;;;;;;7.90;5.20;;;;;;;20.37;79.53;99018.19;107274;1292;22344;-43
2023/06/29 08:40:34;;;;;;;6.20;5.10;;;;;;;20.53;76.81;99013.20;107760;1307;23441;-45
2023/06/29 08:43:00;;;;;;;5.30;4.80;;;;;;;20.74;78.99;99015.95;107750;1307;22552;-44
2023/06/29 08:45:25;;;;;;;6.50;5.00;;;;;;;20.84;76.52;99014.69;106983;1307;22566;-42
2023/06/29 08:47:53;;;;;;;6.00;5.10;;;;;;;20.88;76.17;99016.23;107563;1304;23476;-44
2023/06/29 08:50:23;;;;;;;8.30;5.00;;;;;;;20.99;76.22;99016.03;107255;1307;24087;-44
2023/06/29 08:52:49;;;;;;;13.30;4.90;;;;;;;21.14;75.20;99018.96;107391;1308;22241;-44
2023/06/29 08:55:15;;;;;;;8.00;4.90;;;;;;;21.28;73.07;99022.33;107272;1307;22422;-43
2023/06/29 08:57:41;;;;;;;10.70;4.90;;;;;;;21.38;71.25;99015.77;107574;1307;22485;-44
2023/06/29 09:00:06;;;;;;;6.00;5.00;;;;;;;21.57;73.80;99008.60;107808;1307;22288;-44
2023/06/29 09:02:33;;;;;;;9.20;5.00;;;;;;;21.67;72.27;99013.66;108004;1292;22427;-45
2023/06/29 09:04:58;;;;;;;9.20;4.60;;;;;;;21.77;71.07;99012.52;107994;1307;22257;-46
2023/06/29 09:07:24;;;;;;;9.70;4.80;;;;;;;21.95;71.93;99007.10;107377;1295;22440;-44
2023/06/29 09:09:49;;;;;;;11.60;4.80;;;;;;;22.24;71.89;99010.02;107206;1308;22482;-45
2023/06/29 09:12:16;;;;;;;6.20;4.50;;;;;;;22.41;70.78;99011.65;107840;1308;22905;-44
2023/06/29 09:14:45;;;;;;;4.70;4.20;;;;;;;22.52;69.59;99016.77;107169;1308;22613;-43
2023/06/29 09:17:17;;;;;;;6.20;4.20;;;;;;;22.73;68.37;99017.18;107872;1308;22402;-45
2023/06/29 09:19:54;;;;;;;5.70;3.90;;;;;;;22.91;66.21;99016.67;107543;1308;22595;-43
2023/06/29 09:22:21;;;;;;;5.70;4.00;;;;;;;23.07;64.79;99014.89;107881;1308;22236;-43
2023/06/29 09:24:47;;;;;;;6.30;3.70;;;;;;;23.35;63.60;99018.19;107645;1308;25425;-46
2023/06/29 09:27:12;;;;;;;4.40;3.90;;;;;;;23.60;61.71;99010.73;107905;1308;22407;-43
2023/06/29 09:29:38;;;;;;;5.50;4.00;;;;;;;23.79;60.79;99006.75;107866;1308;23358;-44
2023/06/29 09:32:04;;;;;;;11.20;3.80;;;;;;;24.13;64.30;99008.42;107477;1308;22451;-44
2023/06/29 09:34:29;;;;;;;7.30;3.70;;;;;;;24.44;61.92;99011.20;107052;1308;22580;-42
2023/06/29 09:36:56;;;;;;;6.30;3.70;;;;;;;24.74;60.43;99014.35;107808;1304;22503;-45
2023/06/29 09:39:21;;;;;;;5.70;3.70;;;;;;;25.04;58.68;99006.36;107765;1308;22571;-45
2023/06/29 09:41:53;;;;;;;5.60;3.90;;;;;;;25.44;59.55;99006.96;107145;1308;22213;-44
2023/06/29 09:44:20;;;;;;;6.50;4.00;;;;;;;25.72;58.64;99005.16;107717;1299;22436;-45
2023/06/29 09:46:49;;;;;;;5.40;3.90;;;;;;;25.80;58.85;99007.11;107838;1288;22593;-44
2023/06/29 09:49:15;;;;;;;9.20;3.70;;;;;;;25.98;56.52;99008.65;107863;1305;22329;-46
2023/06/29 09:51:41;;;;;;;4.50;3.70;;;;;;;26.38;54.17;99008.86;106994;1307;22589;-45
2023/06/29 09:54:11;;;;;;;6.10;3.40;;;;;;;26.59;54.04;99005.95;107202;1307;22253;-43
2023/06/29 09:56:37;;;;;;;7.30;3.10;;;;;;;26.57;54.69;99002.58;106697;1308;22593;-45
2023/06/29 09:59:03;;;;;;;5.10;3.20;;;;;;;26.99;52.96;98997.81;107415;1308;22597;-46
2023/06/29 10:01:30;;;;;;;3.30;3.00;;;;;;;27.36;51.12;99001.44;107042;1308;22292;-45
2023/06/29 10:03:56;;;;;;;5.60;3.30;;;;;;;27.51;47.24;98995.62;107295;1308;22753;-46
2023/06/29 10:06:30;;;;;;;3.60;3.00;;;;;;;27.65;48.38;98991.55;107675;1299;22473;-45
2023/06/29 10:08:58;;;;;;;10.30;3.00;;;;;;;28.01;49.00;98994.17;108006;1307;23066;-47
2023/06/29 10:11:28;;;;;;;5.90;3.30;;;;;;;28.20;46.20;98995.27;108016;1307;22721;-47
2023/06/29 10:14:02;;;;;;;5.90;3.00;;;;;;;28.56;44.49;98986.36;107745;1307;22271;-46
2023/06/29 10:16:32;;;;;;;3.30;3.00;;;;;;;28.64;44.39;98986.80;107920;1307;22518;-49
2023/06/29 10:19:06;;;;;;;8.00;3.10;;;;;;;28.69;44.49;98986.98;108024;1307;22394;-45
2023/06/29 10:21:32;;;;;;;3.20;2.90;;;;;;;28.98;45.22;98982.44;108045;1307;22418;-44
2023/06/29 10:23:59;;;;;;;4.80;2.50;;;;;;;29.07;42.13;98984.84;107918;1307;22299;-47
2023/06/29 10:26:25;;;;;;;8.30;3.00;;;;;;;29.32;41.67;98981.94;108030;1307;22491;-44
2023/06/29 10:28:50;;;;;;;3.80;3.10;;;;;;;29.72;41.11;98979.04;107858;1305;22448;-48
